sensor_id;sensor_type;location;lat;lon;timestamp;temperature;humidity
46309;DHT22;32037;50.820;6.494;2023-12-20T00:01:23;7.60;99.90
46309;DHT22;32037;50.820;6.494;2023-12-20T00:03:51;7.60;99.90
46309;DHT22;32037;50.820;6.494;2023-12-20T00:06:20;7.60;99.90
46309;DHT22;32037;50.820;6.494;2023-12-20T00:08:49;7.60;99.90
46309;DHT22;32037;50.820;6.494;2023-12-20T00:11:17;7.60;99.90
46309;DHT22;32037;50.820;6.494;2023-12-20T00:13:45;7.60;99.90
46309;DHT22;32037;50.820;6.494;2023-12-20T00:16:17;7.60;99.90
46309;DHT22;32037;50.820;6.494;2023-12-20T00:18:46;7.60;99.90
46309;DHT22;32037;50.820;6.494;2023-12-20T00:21:14;7.60;99.90
46309;DHT22;32037;50.820;6.494;2023-12-20T00:23:43;7.70;99.90
46309;DHT22;32037;50.820;6.494;2023-12-20T00:26:12;7.70;99.90
46309;DHT22;32037;50.820;6.494;2023-12-20T00:28:40;7.70;99.90
46309;DHT22;32037;50.820;6.494;2023-12-20T00:31:08;7.60;99.90
46309;DHT22;32037;50.820;6.494;2023-12-20T00:33:36;7.60;99.90
46309;DHT22;32037;50.820;6.494;2023-12-20T00:36:06;7.60;99.90
46309;DHT22;32037;50.820;6.494;2023-12-20T00:38:35;7.60;99.90
46309;DHT22;32037;50.820;6.494;2023-12-20T00:41:04;7.60;99.90
46309;DHT22;32037;50.820;6.494;2023-12-20T00:43:32;7.70;99.90
46309;DHT22;32037;50.820;6.494;2023-12-20T00:46:00;7.70;99.90
46309;DHT22;32037;50.820;6.494;2023-12-20T00:48:28;7.60;99.90
46309;DHT22;32037;50.820;6.494;2023-12-20T00:50:58;7.70;99.90
46309;DHT22;32037;50.820;6.494;2023-12-20T00:53:26;7.60;99.90
46309;DHT22;32037;50.820;6.494;2023-12-20T00:55:54;7.70;99.90
46309;DHT22;32037;50.820;6.494;2023-12-20T00:58:23;7.70;99.90
46309;DHT22;32037;50.820;6.494;2023-12-20T01:00:51;7.60;99.90
46309;DHT22;32037;50.820;6.494;2023-12-20T01:03:20;7.70;99.90
46309;DHT22;32037;50.820;6.494;2023-12-20T01:05:48;7.60;99.90
46309;DHT22;32037;50.820;6.494;2023-12-20T01:08:16;7.70;99.90
46309;DHT22;32037;50.820;6.494;2023-12-20T01:10:44;7.70;99.90
46309;DHT22;32037;50.820;6.494;2023-12-20T01:13:13;7.60;99.90
46309;DHT22;32037;50.820;6.494;2023-12-20T01:15:43;7.60;99.90
46309;DHT22;32037;50.820;6.494;2023-12-20T01:18:11;7.60;99.90
46309;DHT22;32037;50.820;6.494;2023-12-20T01:20:39;7.60;99.90
46309;DHT22;32037;50.820;6.494;2023-12-20T01:23:07;7.70;99.90
46309;DHT22;32037;50.820;6.494;2023-12-20T01:25:35;7.70;99.90
46309;DHT22;32037;50.820;6.494;2023-12-20T01:28:04;7.70;99.90
46309;DHT22;32037;50.820;6.494;2023-12-20T01:30:32;7.70;99.90
46309;DHT22;32037;50.820;6.494;2023-12-20T01:33:02;7.60;99.90
46309;DHT22;32037;50.820;6.494;2023-12-20T01:35:30;7.60;99.90
46309;DHT22;32037;50.820;6.494;2023-12-20T01:37:58;7.70;99.90
46309;DHT22;32037;50.820;6.494;2023-12-20T01:40:26;7.60;99.90
46309;DHT22;32037;50.820;6.494;2023-12-20T01:43:00;7.60;99.90
46309;DHT22;32037;50.820;6.494;2023-12-20T01:45:28;7.70;99.90
46309;DHT22;32037;50.820;6.494;2023-12-20T01:47:58;7.60;99.90
46309;DHT22;32037;50.820;6.494;2023-12-20T01:50:28;7.70;99.90
46309;DHT22;32037;50.820;6.494;2023-12-20T01:52:57;7.60;99.90
46309;DHT22;32037;50.820;6.494;2023-12-20T01:55:29;7.70;99.90
46309;DHT22;32037;50.820;6.494;2023-12-20T01:57:59;7.70;99.90
46309;DHT22;32037;50.820;6.494;2023-12-20T02:00:28;7.70;99.90
46309;DHT22;32037;50.820;6.494;2023-12-20T02:03:00;7.70;99.90
46309;DHT22;32037;50.820;6.494;2023-12-20T02:05:30;7.70;99.90
46309;DHT22;32037;50.820;6.494;2023-12-20T02:07:58;7.70;99.90
46309;DHT22;32037;50.820;6.494;2023-12-20T02:10:27;7.60;99.90
46309;DHT22;32037;50.820;6.494;2023-12-20T02:12:55;7.60;99.90
46309;DHT22;32037;50.820;6.494;2023-12-20T02:15:24;7.70;99.90
46309;DHT22;32037;50.820;6.494;2023-12-20T02:17:52;7.60;99.90
46309;DHT22;32037;50.820;6.494;2023-12-20T02:20:21;7.60;99.90
46309;DHT22;32037;50.820;6.494;2023-12-20T02:22:50;7.60;99.90
46309;DHT22;32037;50.820;6.494;2023-12-20T02:25:18;7.60;99.90
46309;DHT22;32037;50.820;6.494;2023-12-20T02:27:47;7.60;99.90
46309;DHT22;32037;50.820;6.494;2023-12-20T02:30:15;7.60;99.90
46309;DHT22;32037;50.820;6.494;2023-12-20T02:32:44;7.60;99.90
46309;DHT22;32037;50.820;6.494;2023-12-20T02:35:12;7.70;99.90
46309;DHT22;32037;50.820;6.494;2023-12-20T02:37:40;7.60;99.90
46309;DHT22;32037;50.820;6.494;2023-12-20T02:40:10;7.60;99.90
46309;DHT22;32037;50.820;6.494;2023-12-20T02:42:38;7.60;99.90
46309;DHT22;32037;50.820;6.494;2023-12-20T02:45:07;7.70;99.90
46309;DHT22;32037;50.820;6.494;2023-12-20T02:47:35;7.60;99.90
46309;DHT22;32037;50.820;6.494;2023-12-20T02:50:04;7.60;99.90
46309;DHT22;32037;50.820;6.494;2023-12-20T02:52:32;7.60;99.90
46309;DHT22;32037;50.820;6.494;2023-12-20T02:55:01;7.60;99.90
46309;DHT22;32037;50.820;6.494;2023-12-20T02:57:30;7.60;99.90
46309;DHT22;32037;50.820;6.494;2023-12-20T03:00:00;7.70;99.90
46309;DHT22;32037;50.820;6.494;2023-12-20T03:02:28;7.60;99.90
46309;DHT22;32037;50.820;6.494;2023-12-20T03:04:56;7.60;99.90
46309;DHT22;32037;50.820;6.494;2023-12-20T03:07:27;7.60;99.90
46309;DHT22;32037;50.820;6.494;2023-12-20T03:09:55;7.60;99.90
46309;DHT22;32037;50.820;6.494;2023-12-20T03:12:43;7.60;99.90
46309;DHT22;32037;50.820;6.494;2023-12-20T03:15:11;7.60;99.90
46309;DHT22;32037;50.820;6.494;2023-12-20T03:17:39;7.70;99.90
46309;DHT22;32037;50.820;6.494;2023-12-20T03:20:08;7.60;99.90
46309;DHT22;32037;50.820;6.494;2023-12-20T03:22:36;7.60;99.90
46309;DHT22;32037;50.820;6.494;2023-12-20T03:25:05;7.60;99.90
46309;DHT22;32037;50.820;6.494;2023-12-20T03:27:33;7.60;99.90
46309;DHT22;32037;50.820;6.494;2023-12-20T03:30:03;7.60;99.90
46309;DHT22;32037;50.820;6.494;2023-12-20T03:32:31;7.60;99.90
46309;DHT22;32037;50.820;6.494;2023-12-20T03:34:59;7.60;99.90
46309;DHT22;32037;50.820;6.494;2023-12-20T03:37:28;7.60;99.90
46309;DHT22;32037;50.820;6.494;2023-12-20T03:39:56;7.60;99.90
46309;DHT22;32037;50.820;6.494;2023-12-20T03:42:24;7.60;99.90
46309;DHT22;32037;50.820;6.494;2023-12-20T03:44:52;7.60;99.90
46309;DHT22;32037;50.820;6.494;2023-12-20T03:47:22;7.60;99.90
46309;DHT22;32037;50.820;6.494;2023-12-20T03:49:50;7.70;99.90
46309;DHT22;32037;50.820;6.494;2023-12-20T03:52:18;7.70;99.90
46309;DHT22;32037;50.820;6.494;2023-12-20T03:54:46;7.60;99.90
46309;DHT22;32037;50.820;6.494;2023-12-20T03:57:14;7.60;99.90
46309;DHT22;32037;50.820;6.494;2023-12-20T03:59:42;7.60;99.90
46309;DHT22;32037;50.820;6.494;2023-12-20T04:02:11;7.60;99.90
46309;DHT22;32037;50.820;6.494;2023-12-20T04:04:40;7.60;99.90
46309;DHT22;32037;50.820;6.494;2023-12-20T04:07:09;7.60;99.90
46309;DHT22;32037;50.820;6.494;2023-12-20T04:09:37;7.60;99.90
46309;DHT22;32037;50.820;6.494;2023-12-20T04:12:06;7.60;99.90
46309;DHT22;32037;50.820;6.494;2023-12-20T04:14:34;7.60;99.90
46309;DHT22;32037;50.820;6.494;2023-12-20T04:17:02;7.60;99.90
46309;DHT22;32037;50.820;6.494;2023-12-20T04:19:30;7.60;99.90
46309;DHT22;32037;50.820;6.494;2023-12-20T04:22:00;7.60;99.90
46309;DHT22;32037;50.820;6.494;2023-12-20T04:24:28;7.60;99.90
46309;DHT22;32037;50.820;6.494;2023-12-20T04:26:56;7.60;99.90
46309;DHT22;32037;50.820;6.494;2023-12-20T04:29:24;7.60;99.90
46309;DHT22;32037;50.820;6.494;2023-12-20T04:31:52;7.60;99.90
46309;DHT22;32037;50.820;6.494;2023-12-20T04:34:21;7.60;99.90
46309;DHT22;32037;50.820;6.494;2023-12-20T04:36:50;7.60;99.90
46309;DHT22;32037;50.820;6.494;2023-12-20T04:39:19;7.60;99.90
46309;DHT22;32037;50.820;6.494;2023-12-20T04:41:47;7.60;99.90
46309;DHT22;32037;50.820;6.494;2023-12-20T04:44:16;7.60;99.90
46309;DHT22;32037;50.820;6.494;2023-12-20T04:46:44;7.60;99.90
46309;DHT22;32037;50.820;6.494;2023-12-20T04:49:13;7.70;99.90
46309;DHT22;32037;50.820;6.494;2023-12-20T04:51:41;7.60;99.90
46309;DHT22;32037;50.820;6.494;2023-12-20T04:54:09;7.60;99.90
46309;DHT22;32037;50.820;6.494;2023-12-20T04:56:39;7.60;99.90
46309;DHT22;32037;50.820;6.494;2023-12-20T04:59:07;7.60;99.90
46309;DHT22;32037;50.820;6.494;2023-12-20T05:01:35;7.60;99.90
46309;DHT22;32037;50.820;6.494;2023-12-20T05:04:03;7.60;99.90
46309;DHT22;32037;50.820;6.494;2023-12-20T05:06:32;7.60;99.90
46309;DHT22;32037;50.820;6.494;2023-12-20T05:09:00;7.60;99.90
46309;DHT22;32037;50.820;6.494;2023-12-20T05:11:28;7.60;99.90
46309;DHT22;32037;50.820;6.494;2023-12-20T05:13:57;7.60;99.90
46309;DHT22;32037;50.820;6.494;2023-12-20T05:16:25;7.60;99.90
46309;DHT22;32037;50.820;6.494;2023-12-20T05:18:53;7.60;99.90
46309;DHT22;32037;50.820;6.494;2023-12-20T05:21:22;7.60;99.90
46309;DHT22;32037;50.820;6.494;2023-12-20T05:23:50;7.60;99.90
46309;DHT22;32037;50.820;6.494;2023-12-20T05:26:18;7.60;99.90
46309;DHT22;32037;50.820;6.494;2023-12-20T05:28:46;7.60;99.90
46309;DHT22;32037;50.820;6.494;2023-12-20T05:31:16;7.60;99.90
46309;DHT22;32037;50.820;6.494;2023-12-20T05:33:44;7.60;99.90
46309;DHT22;32037;50.820;6.494;2023-12-20T05:36:12;7.60;99.90
46309;DHT22;32037;50.820;6.494;2023-12-20T05:38:42;7.60;99.90
46309;DHT22;32037;50.820;6.494;2023-12-20T05:41:10;7.60;99.90
46309;DHT22;32037;50.820;6.494;2023-12-20T05:43:38;7.60;99.90
46309;DHT22;32037;50.820;6.494;2023-12-20T05:46:06;7.60;99.90
46309;DHT22;32037;50.820;6.494;2023-12-20T05:48:36;7.60;99.90
46309;DHT22;32037;50.820;6.494;2023-12-20T05:51:04;7.60;99.90
46309;DHT22;32037;50.820;6.494;2023-12-20T05:53:32;7.60;99.90
46309;DHT22;32037;50.820;6.494;2023-12-20T05:56:00;7.60;99.90
46309;DHT22;32037;50.820;6.494;2023-12-20T05:58:28;7.60;99.90
46309;DHT22;32037;50.820;6.494;2023-12-20T06:00:57;7.60;99.90
46309;DHT22;32037;50.820;6.494;2023-12-20T06:03:25;7.60;99.90
46309;DHT22;32037;50.820;6.494;2023-12-20T06:05:54;7.60;99.90
46309;DHT22;32037;50.820;6.494;2023-12-20T06:08:39;7.60;99.90
46309;DHT22;32037;50.820;6.494;2023-12-20T06:11:07;7.60;99.90
46309;DHT22;32037;50.820;6.494;2023-12-20T06:13:35;7.60;99.90
46309;DHT22;32037;50.820;6.494;2023-12-20T06:16:05;7.60;99.90
46309;DHT22;32037;50.820;6.494;2023-12-20T06:18:34;7.60;99.90
46309;DHT22;32037;50.820;6.494;2023-12-20T06:21:05;7.60;99.90
46309;DHT22;32037;50.820;6.494;2023-12-20T06:23:34;7.60;99.90
46309;DHT22;32037;50.820;6.494;2023-12-20T06:26:03;7.60;99.90
46309;DHT22;32037;50.820;6.494;2023-12-20T06:28:31;7.60;99.90
46309;DHT22;32037;50.820;6.494;2023-12-20T06:30:59;7.60;99.90
46309;DHT22;32037;50.820;6.494;2023-12-20T06:33:27;7.60;99.90
46309;DHT22;32037;50.820;6.494;2023-12-20T06:35:56;7.60;99.90
46309;DHT22;32037;50.820;6.494;2023-12-20T06:38:25;7.60;99.90
46309;DHT22;32037;50.820;6.494;2023-12-20T06:40:54;7.60;99.90
46309;DHT22;32037;50.820;6.494;2023-12-20T06:43:24;7.60;99.90
46309;DHT22;32037;50.820;6.494;2023-12-20T06:46:12;7.60;99.90
46309;DHT22;32037;50.820;6.494;2023-12-20T06:48:40;7.60;99.90
46309;DHT22;32037;50.820;6.494;2023-12-20T06:51:12;7.60;99.90
46309;DHT22;32037;50.820;6.494;2023-12-20T06:53:41;7.60;99.90
46309;DHT22;32037;50.820;6.494;2023-12-20T06:56:11;7.60;99.90
46309;DHT22;32037;50.820;6.494;2023-12-20T06:58:43;7.60;99.90
46309;DHT22;32037;50.820;6.494;2023-12-20T07:01:11;7.60;99.90
46309;DHT22;32037;50.820;6.494;2023-12-20T07:03:40;7.60;99.90
46309;DHT22;32037;50.820;6.494;2023-12-20T07:06:08;7.60;99.90
46309;DHT22;32037;50.820;6.494;2023-12-20T07:08:36;7.60;99.90
46309;DHT22;32037;50.820;6.494;2023-12-20T07:11:06;7.60;99.90
46309;DHT22;32037;50.820;6.494;2023-12-20T07:13:34;7.60;99.90
46309;DHT22;32037;50.820;6.494;2023-12-20T07:16:03;7.60;99.90
46309;DHT22;32037;50.820;6.494;2023-12-20T07:18:31;7.60;99.90
46309;DHT22;32037;50.820;6.494;2023-12-20T07:20:59;7.60;99.90
46309;DHT22;32037;50.820;6.494;2023-12-20T07:23:27;7.60;99.90
46309;DHT22;32037;50.820;6.494;2023-12-20T07:25:56;7.60;99.90
46309;DHT22;32037;50.820;6.494;2023-12-20T07:28:25;7.60;99.90
46309;DHT22;32037;50.820;6.494;2023-12-20T07:30:53;7.60;99.90
46309;DHT22;32037;50.820;6.494;2023-12-20T07:33:21;7.60;99.90
46309;DHT22;32037;50.820;6.494;2023-12-20T07:35:50;7.60;99.90
46309;DHT22;32037;50.820;6.494;2023-12-20T07:38:19;7.60;99.90
46309;DHT22;32037;50.820;6.494;2023-12-20T07:40:47;7.60;99.90
46309;DHT22;32037;50.820;6.494;2023-12-20T07:43:15;7.60;99.90
46309;DHT22;32037;50.820;6.494;2023-12-20T07:45:45;7.60;99.90
46309;DHT22;32037;50.820;6.494;2023-12-20T07:48:13;7.60;99.90
46309;DHT22;32037;50.820;6.494;2023-12-20T07:50:41;7.60;99.90
46309;DHT22;32037;50.820;6.494;2023-12-20T07:53:10;7.60;99.90
46309;DHT22;32037;50.820;6.494;2023-12-20T07:55:38;7.60;99.90
46309;DHT22;32037;50.820;6.494;2023-12-20T07:58:06;7.60;99.90
46309;DHT22;32037;50.820;6.494;2023-12-20T08:00:35;7.60;99.90
46309;DHT22;32037;50.820;6.494;2023-12-20T08:03:04;7.60;99.90
46309;DHT22;32037;50.820;6.494;2023-12-20T08:05:33;7.60;99.90
46309;DHT22;32037;50.820;6.494;2023-12-20T08:08:01;7.60;99.90
46309;DHT22;32037;50.820;6.494;2023-12-20T08:10:30;7.60;99.90
46309;DHT22;32037;50.820;6.494;2023-12-20T08:12:58;7.60;99.90
46309;DHT22;32037;50.820;6.494;2023-12-20T08:15:26;7.60;99.90
46309;DHT22;32037;50.820;6.494;2023-12-20T08:17:54;7.60;99.90
46309;DHT22;32037;50.820;6.494;2023-12-20T08:20:23;7.60;99.90
46309;DHT22;32037;50.820;6.494;2023-12-20T08:23:05;7.60;99.90
46309;DHT22;32037;50.820;6.494;2023-12-20T08:25:33;7.50;99.90
46309;DHT22;32037;50.820;6.494;2023-12-20T08:28:02;7.60;99.90
46309;DHT22;32037;50.820;6.494;2023-12-20T08:30:31;7.60;99.90
46309;DHT22;32037;50.820;6.494;2023-12-20T08:33:00;7.60;99.90
46309;DHT22;32037;50.820;6.494;2023-12-20T08:35:30;7.50;99.90
46309;DHT22;32037;50.820;6.494;2023-12-20T08:37:58;7.60;99.90
46309;DHT22;32037;50.820;6.494;2023-12-20T08:40:27;7.60;99.90
46309;DHT22;32037;50.820;6.494;2023-12-20T08:42:55;7.50;99.90
46309;DHT22;32037;50.820;6.494;2023-12-20T08:45:23;7.60;99.90
46309;DHT22;32037;50.820;6.494;2023-12-20T08:47:51;7.60;99.90
46309;DHT22;32037;50.820;6.494;2023-12-20T08:50:19;7.60;99.90
46309;DHT22;32037;50.820;6.494;2023-12-20T08:52:49;7.60;99.90
46309;DHT22;32037;50.820;6.494;2023-12-20T08:55:18;7.60;99.90
46309;DHT22;32037;50.820;6.494;2023-12-20T08:57:47;7.60;99.90
46309;DHT22;32037;50.820;6.494;2023-12-20T09:00:16;7.60;99.90
46309;DHT22;32037;50.820;6.494;2023-12-20T09:02:47;7.60;99.90
46309;DHT22;32037;50.820;6.494;2023-12-20T09:05:15;7.60;99.90
46309;DHT22;32037;50.820;6.494;2023-12-20T09:07:43;7.60;99.90
46309;DHT22;32037;50.820;6.494;2023-12-20T09:10:13;7.60;99.90
46309;DHT22;32037;50.820;6.494;2023-12-20T09:12:45;7.60;99.90
46309;DHT22;32037;50.820;6.494;2023-12-20T09:15:14;7.60;99.90
46309;DHT22;32037;50.820;6.494;2023-12-20T09:17:43;7.60;99.90
46309;DHT22;32037;50.820;6.494;2023-12-20T09:20:11;7.60;99.90
46309;DHT22;32037;50.820;6.494;2023-12-20T09:22:41;7.60;99.90
46309;DHT22;32037;50.820;6.494;2023-12-20T09:25:09;7.60;99.90
46309;DHT22;32037;50.820;6.494;2023-12-20T09:27:39;7.60;99.90
46309;DHT22;32037;50.820;6.494;2023-12-20T09:30:08;7.60;99.90
46309;DHT22;32037;50.820;6.494;2023-12-20T09:32:37;7.60;99.90
46309;DHT22;32037;50.820;6.494;2023-12-20T09:35:05;7.60;99.90
46309;DHT22;32037;50.820;6.494;2023-12-20T09:37:35;7.60;99.90
46309;DHT22;32037;50.820;6.494;2023-12-20T09:40:04;7.60;99.90
46309;DHT22;32037;50.820;6.494;2023-12-20T09:42:39;7.60;99.90
46309;DHT22;32037;50.820;6.494;2023-12-20T09:45:15;7.60;99.90
46309;DHT22;32037;50.820;6.494;2023-12-20T09:47:43;7.60;99.90
46309;DHT22;32037;50.820;6.494;2023-12-20T09:50:12;7.60;99.90
46309;DHT22;32037;50.820;6.494;2023-12-20T09:52:41;7.60;99.90
46309;DHT22;32037;50.820;6.494;2023-12-20T09:55:11;7.60;99.90
46309;DHT22;32037;50.820;6.494;2023-12-20T09:57:41;7.60;99.90
46309;DHT22;32037;50.820;6.494;2023-12-20T10:00:10;7.60;99.90
46309;DHT22;32037;50.820;6.494;2023-12-20T10:02:42;7.60;99.90
46309;DHT22;32037;50.820;6.494;2023-12-20T10:05:16;7.60;99.90
46309;DHT22;32037;50.820;6.494;2023-12-20T10:07:46;7.60;99.90
46309;DHT22;32037;50.820;6.494;2023-12-20T10:10:15;7.60;99.90
46309;DHT22;32037;50.820;6.494;2023-12-20T10:13:02;7.60;99.90
46309;DHT22;32037;50.820;6.494;2023-12-20T10:15:31;7.60;99.90
46309;DHT22;32037;50.820;6.494;2023-12-20T10:17:59;7.60;99.90
46309;DHT22;32037;50.820;6.494;2023-12-20T10:20:29;7.60;99.90
46309;DHT22;32037;50.820;6.494;2023-12-20T10:22:58;7.60;99.90
46309;DHT22;32037;50.820;6.494;2023-12-20T10:25:27;7.60;99.90
46309;DHT22;32037;50.820;6.494;2023-12-20T10:28:11;7.60;99.90
46309;DHT22;32037;50.820;6.494;2023-12-20T10:30:40;7.60;99.90
46309;DHT22;32037;50.820;6.494;2023-12-20T10:33:10;7.60;99.90
46309;DHT22;32037;50.820;6.494;2023-12-20T10:35:39;7.60;99.90
46309;DHT22;32037;50.820;6.494;2023-12-20T10:38:12;7.60;99.90
46309;DHT22;32037;50.820;6.494;2023-12-20T10:40:42;7.60;99.90
46309;DHT22;32037;50.820;6.494;2023-12-20T10:43:15;7.60;99.90
46309;DHT22;32037;50.820;6.494;2023-12-20T10:45:43;7.60;99.90
46309;DHT22;32037;50.820;6.494;2023-12-20T10:48:11;7.60;99.90
46309;DHT22;32037;50.820;6.494;2023-12-20T10:50:41;7.60;99.90
46309;DHT22;32037;50.820;6.494;2023-12-20T10:53:09;7.60;99.90
46309;DHT22;32037;50.820;6.494;2023-12-20T10:55:39;7.60;99.90
46309;DHT22;32037;50.820;6.494;2023-12-20T10:58:08;7.60;99.90
46309;DHT22;32037;50.820;6.494;2023-12-20T11:00:40;7.60;99.90
46309;DHT22;32037;50.820;6.494;2023-12-20T11:03:10;7.60;99.90
46309;DHT22;32037;50.820;6.494;2023-12-20T11:05:44;7.60;99.90
46309;DHT22;32037;50.820;6.494;2023-12-20T11:08:28;7.60;99.90
46309;DHT22;32037;50.820;6.494;2023-12-20T11:11:04;7.60;99.90
46309;DHT22;32037;50.820;6.494;2023-12-20T11:13:37;7.60;99.90
46309;DHT22;32037;50.820;6.494;2023-12-20T11:16:07;7.60;99.90
46309;DHT22;32037;50.820;6.494;2023-12-20T11:18:35;7.60;99.90
46309;DHT22;32037;50.820;6.494;2023-12-20T11:21:05;7.70;99.90
46309;DHT22;32037;50.820;6.494;2023-12-20T11:23:33;7.70;99.90
46309;DHT22;32037;50.820;6.494;2023-12-20T11:26:03;7.60;99.90
46309;DHT22;32037;50.820;6.494;2023-12-20T11:28:31;7.60;99.90
46309;DHT22;32037;50.820;6.494;2023-12-20T11:31:01;7.60;99.90
46309;DHT22;32037;50.820;6.494;2023-12-20T11:33:35;7.70;99.90
46309;DHT22;32037;50.820;6.494;2023-12-20T11:36:13;7.60;99.90
46309;DHT22;32037;50.820;6.494;2023-12-20T11:38:57;7.60;99.90
46309;DHT22;32037;50.820;6.494;2023-12-20T11:41:26;7.70;99.90
46309;DHT22;32037;50.820;6.494;2023-12-20T11:43:56;7.60;99.90
46309;DHT22;32037;50.820;6.494;2023-12-20T11:46:24;7.60;99.90
46309;DHT22;32037;50.820;6.494;2023-12-20T11:48:54;7.60;99.90
46309;DHT22;32037;50.820;6.494;2023-12-20T11:51:22;7.60;99.90
46309;DHT22;32037;50.820;6.494;2023-12-20T11:53:54;7.70;99.90
46309;DHT22;32037;50.820;6.494;2023-12-20T11:56:22;7.60;99.90
46309;DHT22;32037;50.820;6.494;2023-12-20T11:58:50;7.60;99.90
46309;DHT22;32037;50.820;6.494;2023-12-20T12:01:20;7.70;99.90
46309;DHT22;32037;50.820;6.494;2023-12-20T12:03:48;7.70;99.90
46309;DHT22;32037;50.820;6.494;2023-12-20T12:06:18;7.70;99.90
46309;DHT22;32037;50.820;6.494;2023-12-20T12:08:46;7.70;99.90
46309;DHT22;32037;50.820;6.494;2023-12-20T12:11:14;7.70;99.90
46309;DHT22;32037;50.820;6.494;2023-12-20T12:13:42;7.60;99.90
46309;DHT22;32037;50.820;6.494;2023-12-20T12:16:10;7.60;99.90
46309;DHT22;32037;50.820;6.494;2023-12-20T12:18:38;7.60;99.90
46309;DHT22;32037;50.820;6.494;2023-12-20T12:21:08;7.60;99.90
46309;DHT22;32037;50.820;6.494;2023-12-20T12:23:46;7.60;99.90
46309;DHT22;32037;50.820;6.494;2023-12-20T12:26:14;7.60;99.90
46309;DHT22;32037;50.820;6.494;2023-12-20T12:28:42;7.70;99.90
46309;DHT22;32037;50.820;6.494;2023-12-20T12:31:14;7.60;99.90
46309;DHT22;32037;50.820;6.494;2023-12-20T12:33:42;7.70;99.90
46309;DHT22;32037;50.820;6.494;2023-12-20T12:36:12;7.70;99.90
46309;DHT22;32037;50.820;6.494;2023-12-20T12:38:42;7.70;99.90
46309;DHT22;32037;50.820;6.494;2023-12-20T12:41:14;7.70;99.90
46309;DHT22;32037;50.820;6.494;2023-12-20T12:43:43;7.70;99.90
46309;DHT22;32037;50.820;6.494;2023-12-20T12:46:11;7.70;99.90
46309;DHT22;32037;50.820;6.494;2023-12-20T12:48:39;7.70;99.90
46309;DHT22;32037;50.820;6.494;2023-12-20T12:51:11;7.60;99.90
46309;DHT22;32037;50.820;6.494;2023-12-20T12:53:40;7.70;99.90
46309;DHT22;32037;50.820;6.494;2023-12-20T12:56:09;7.60;99.90
46309;DHT22;32037;50.820;6.494;2023-12-20T12:58:39;7.70;99.90
46309;DHT22;32037;50.820;6.494;2023-12-20T13:01:07;7.60;99.90
46309;DHT22;32037;50.820;6.494;2023-12-20T13:03:35;7.70;99.90
46309;DHT22;32037;50.820;6.494;2023-12-20T13:06:04;7.60;99.90
46309;DHT22;32037;50.820;6.494;2023-12-20T13:08:32;7.60;99.90
46309;DHT22;32037;50.820;6.494;2023-12-20T13:11:01;7.60;99.90
46309;DHT22;32037;50.820;6.494;2023-12-20T13:13:31;7.60;99.90
46309;DHT22;32037;50.820;6.494;2023-12-20T13:16:00;7.60;99.90
46309;DHT22;32037;50.820;6.494;2023-12-20T13:18:28;7.60;99.90
46309;DHT22;32037;50.820;6.494;2023-12-20T13:20:57;7.60;99.90
46309;DHT22;32037;50.820;6.494;2023-12-20T13:23:25;7.60;99.90
46309;DHT22;32037;50.820;6.494;2023-12-20T13:25:53;7.60;99.90
46309;DHT22;32037;50.820;6.494;2023-12-20T13:28:21;7.60;99.90
46309;DHT22;32037;50.820;6.494;2023-12-20T13:30:49;7.60;99.90
46309;DHT22;32037;50.820;6.494;2023-12-20T13:33:19;7.60;99.90
46309;DHT22;32037;50.820;6.494;2023-12-20T13:35:47;7.60;99.90
46309;DHT22;32037;50.820;6.494;2023-12-20T13:38:15;7.60;99.90
46309;DHT22;32037;50.820;6.494;2023-12-20T13:40:43;7.60;99.90
46309;DHT22;32037;50.820;6.494;2023-12-20T13:43:11;7.60;99.90
46309;DHT22;32037;50.820;6.494;2023-12-20T13:45:40;7.60;99.90
46309;DHT22;32037;50.820;6.494;2023-12-20T13:48:09;7.60;99.90
46309;DHT22;32037;50.820;6.494;2023-12-20T13:50:38;7.60;99.90
46309;DHT22;32037;50.820;6.494;2023-12-20T13:53:06;7.60;99.90
46309;DHT22;32037;50.820;6.494;2023-12-20T13:55:34;7.60;99.90
46309;DHT22;32037;50.820;6.494;2023-12-20T13:58:03;7.70;99.90
46309;DHT22;32037;50.820;6.494;2023-12-20T14:00:31;7.60;99.90
46309;DHT22;32037;50.820;6.494;2023-12-20T14:02:59;7.60;99.90
46309;DHT22;32037;50.820;6.494;2023-12-20T14:05:28;7.60;99.90
46309;DHT22;32037;50.820;6.494;2023-12-20T14:07:58;7.60;99.90
46309;DHT22;32037;50.820;6.494;2023-12-20T14:10:27;7.60;99.90
46309;DHT22;32037;50.820;6.494;2023-12-20T14:12:55;7.60;99.90
46309;DHT22;32037;50.820;6.494;2023-12-20T14:15:24;7.60;99.90
46309;DHT22;32037;50.820;6.494;2023-12-20T14:17:53;7.60;99.90
46309;DHT22;32037;50.820;6.494;2023-12-20T14:20:21;7.60;99.90
46309;DHT22;32037;50.820;6.494;2023-12-20T14:22:50;7.60;99.90
46309;DHT22;32037;50.820;6.494;2023-12-20T14:25:19;7.60;99.90
46309;DHT22;32037;50.820;6.494;2023-12-20T14:27:50;7.60;99.90
46309;DHT22;32037;50.820;6.494;2023-12-20T14:30:18;7.70;99.90
46309;DHT22;32037;50.820;6.494;2023-12-20T14:32:46;7.70;99.90
46309;DHT22;32037;50.820;6.494;2023-12-20T14:35:15;7.80;99.90
46309;DHT22;32037;50.820;6.494;2023-12-20T14:37:43;7.80;99.90
46309;DHT22;32037;50.820;6.494;2023-12-20T14:40:12;7.90;99.90
46309;DHT22;32037;50.820;6.494;2023-12-20T14:42:45;7.90;99.90
46309;DHT22;32037;50.820;6.494;2023-12-20T14:45:14;8.00;99.90
46309;DHT22;32037;50.820;6.494;2023-12-20T14:47:43;8.00;99.90
46309;DHT22;32037;50.820;6.494;2023-12-20T14:50:12;8.00;99.90
46309;DHT22;32037;50.820;6.494;2023-12-20T14:52:45;8.00;99.90
46309;DHT22;32037;50.820;6.494;2023-12-20T14:55:14;8.00;99.90
46309;DHT22;32037;50.820;6.494;2023-12-20T14:57:43;8.10;99.90
46309;DHT22;32037;50.820;6.494;2023-12-20T15:00:12;8.10;99.90
46309;DHT22;32037;50.820;6.494;2023-12-20T15:02:43;8.10;99.90
46309;DHT22;32037;50.820;6.494;2023-12-20T15:05:11;8.10;99.90
46309;DHT22;32037;50.820;6.494;2023-12-20T15:07:41;8.10;99.90
46309;DHT22;32037;50.820;6.494;2023-12-20T15:10:09;8.10;99.90
46309;DHT22;32037;50.820;6.494;2023-12-20T15:12:37;8.10;99.90
46309;DHT22;32037;50.820;6.494;2023-12-20T15:15:08;8.10;99.90
46309;DHT22;32037;50.820;6.494;2023-12-20T15:17:36;8.10;99.90
46309;DHT22;32037;50.820;6.494;2023-12-20T15:20:05;8.10;99.90
46309;DHT22;32037;50.820;6.494;2023-12-20T15:22:35;8.10;99.90
46309;DHT22;32037;50.820;6.494;2023-12-20T15:25:05;8.10;99.90
46309;DHT22;32037;50.820;6.494;2023-12-20T15:27:35;8.20;99.90
46309;DHT22;32037;50.820;6.494;2023-12-20T15:30:07;8.10;99.90
46309;DHT22;32037;50.820;6.494;2023-12-20T15:32:37;8.10;99.90
46309;DHT22;32037;50.820;6.494;2023-12-20T15:35:06;8.10;99.90
46309;DHT22;32037;50.820;6.494;2023-12-20T15:37:37;8.10;99.90
46309;DHT22;32037;50.820;6.494;2023-12-20T15:40:08;8.10;99.90
46309;DHT22;32037;50.820;6.494;2023-12-20T15:42:38;8.10;99.90
46309;DHT22;32037;50.820;6.494;2023-12-20T15:45:09;8.10;99.90
46309;DHT22;32037;50.820;6.494;2023-12-20T15:47:37;8.10;99.90
46309;DHT22;32037;50.820;6.494;2023-12-20T15:50:06;8.20;99.90
46309;DHT22;32037;50.820;6.494;2023-12-20T15:52:34;8.20;99.90
46309;DHT22;32037;50.820;6.494;2023-12-20T15:55:04;8.10;99.90
46309;DHT22;32037;50.820;6.494;2023-12-20T15:57:32;8.10;99.90